地図

経路データ

SID SEASON NUMBER BASIN SUBBASIN NAME ISO_TIME NATURE LAT LON WMO_WIND WMO_PRES WMO_AGENCY TRACK_TYPE DIST2LAND LANDFALL IFLAG USA_AGENCY USA_ATCF_ID USA_LAT USA_LON USA_RECORD USA_STATUS USA_WIND USA_PRES USA_SSHS USA_R34_NE USA_R34_SE USA_R34_SW USA_R34_NW USA_R50_NE USA_R50_SE USA_R50_SW USA_R50_NW USA_R64_NE USA_R64_SE USA_R64_SW USA_R64_NW USA_POCI USA_ROCI USA_RMW USA_EYE TOKYO_LAT TOKYO_LON TOKYO_GRADE TOKYO_WIND TOKYO_PRES TOKYO_R50_DIR TOKYO_R50_LONG TOKYO_R50_SHORT TOKYO_R30_DIR TOKYO_R30_LONG TOKYO_R30_SHORT TOKYO_LAND CMA_LAT CMA_LON CMA_CAT CMA_WIND CMA_PRES HKO_LAT HKO_LON HKO_CAT HKO_WIND HKO_PRES NEWDELHI_LAT NEWDELHI_LON NEWDELHI_GRADE NEWDELHI_WIND NEWDELHI_PRES NEWDELHI_CI NEWDELHI_DP NEWDELHI_POCI REUNION_LAT REUNION_LON REUNION_TYPE REUNION_WIND REUNION_PRES REUNION_TNUM REUNION_CI REUNION_RMW REUNION_R34_NE REUNION_R34_SE REUNION_R34_SW REUNION_R34_NW REUNION_R50_NE REUNION_R50_SE REUNION_R50_SW REUNION_R50_NW REUNION_R64_NE REUNION_R64_SE REUNION_R64_SW REUNION_R64_NW BOM_LAT BOM_LON BOM_TYPE BOM_WIND BOM_PRES BOM_TNUM BOM_CI BOM_RMW BOM_R34_NE BOM_R34_SE BOM_R34_SW BOM_R34_NW BOM_R50_NE BOM_R50_SE BOM_R50_SW BOM_R50_NW BOM_R64_NE BOM_R64_SE BOM_R64_SW BOM_R64_NW BOM_ROCI BOM_POCI BOM_EYE BOM_POS_METHOD BOM_PRES_METHOD NADI_LAT NADI_LON NADI_CAT NADI_WIND NADI_PRES WELLINGTON_LAT WELLINGTON_LON WELLINGTON_WIND WELLINGTON_PRES DS824_LAT DS824_LON DS824_STAGE DS824_WIND DS824_PRES TD9636_LAT TD9636_LON TD9636_STAGE TD9636_WIND TD9636_PRES TD9635_LAT TD9635_LON TD9635_WIND TD9635_PRES TD9635_ROCI NEUMANN_LAT NEUMANN_LON NEUMANN_CLASS NEUMANN_WIND NEUMANN_PRES MLC_LAT MLC_LON MLC_CLASS MLC_WIND MLC_PRES USA_GUST BOM_GUST BOM_GUST_PER REUNION_GUST REUNION_GUST_PER USA_SEAHGT USA_SEARAD_NE USA_SEARAD_SE USA_SEARAD_SW USA_SEARAD_NW STORM_SPEED STORM_DIR
1979204N19143 1979 58 WP MM NOT_NAMED 1979-07-23 00:00:00 NR 19.0000 142.500 main 1740 1679 __________O___ -1 19.0000 142.500 1 18 290
1979204N19143 1979 58 WP MM NOT_NAMED 1979-07-23 03:00:00 NR 19.2986 141.614 main 1676 1628 __________P___ -1 19.2986 141.614 1 17 289
1979204N19143 1979 58 WP MM NOT_NAMED 1979-07-23 06:00:00 TS 19.5636 140.759 main 1618 1539 O________OP___ jtwc_wp WP081979 19.5000 140.800 20 -1 19.5000 140.800 TC 20 19.6061 140.731 1 18 290
1979204N19143 1979 58 WP MM NOT_NAMED 1979-07-23 09:00:00 TS 19.9121 139.862 main 1539 1438 P________PP___ WP081979 19.8888 139.866 20 -1 19.8888 139.866 TC 20 19.9354 139.858 1 20 295
1979204N19143 1979 58 WP MM NOT_NAMED 1979-07-23 12:00:00 TS 20.4091 138.864 main 1438 1347 O_O______OO___ jtwc_wp WP081979 20.3000 139.000 20 -1 21.5000 137.500 0 1006 20.3000 139.000 TC 20 20.3000 139.000 1 20 20 300
1979204N19143 1979 58 WP MM NOT_NAMED 1979-07-23 15:00:00 TS 20.9134 138.042 main 1342 1257 P_P______PP___ WP081979 20.7492 138.242 20 -1 21.9829 136.998 0 1006 20.7492 138.242 TC 20 20.7073 138.162 1 20 18 305
1979204N19143 1979 58 WP MM NOT_NAMED 1979-07-23 18:00:00 TS 21.4443 137.259 main 1257 1168 O_O______OP___ jtwc_wp WP081979 21.2000 137.500 20 -1 22.5000 136.500 0 1006 21.2000 137.500 TC 20 21.1411 137.348 1 20 18 306
1979204N19143 1979 58 WP MM NOT_NAMED 1979-07-23 21:00:00 TS 21.9655 136.463 main 1158 1085 P_P______PP___ WP081979 21.6151 136.642 20 -1 23.0523 136.008 0 1005 21.6151 136.642 TC 20 21.5794 136.559 1 20 17 303
1979204N19143 1979 58 WP MM NOT_NAMED 1979-07-24 00:00:00 TS 22.3750 135.725 main 1080 1024 O_O______OO___ jtwc_wp WP081979 22.0000 135.800 20 -1 23.5000 135.500 0 19 1004 22.0000 135.800 TC 20 22.0000 135.800 1 20 15 299
1979204N19143 1979 58 WP MM NOT_NAMED 1979-07-24 03:00:00 TS 22.6945 135.045 main 1019 965 P_P______PP___ WP081979 22.3569 135.077 20 -1 23.7024 134.957 0 19 1004 22.3569 135.077 TC 20 22.3619 135.069 1 20 14 296
1979204N19143 1979 58 WP MM NOT_NAMED 1979-07-24 06:00:00 TS 22.9764 134.392 main 965 912 O_O______OP___ jtwc_wp WP081979 22.7000 134.400 20 -1 23.8000 134.400 0 19 1004 22.7000 134.400 TC 20 22.7054 134.367 1 20 13 296
1979204N19143 1979 58 WP MM NOT_NAMED 1979-07-24 09:00:00 TS 23.2680 133.751 main 912 859 P_P______PP___ WP081979 23.0571 133.707 20 -1 23.9115 133.909 0 19 1004 23.0571 133.707 TC 20 23.0464 133.682 1 20 14 296
1979204N19143 1979 58 WP MM NOT_NAMED 1979-07-24 12:00:00 TS 23.5750 133.075 main 859 808 O_O______OO___ jtwc_wp WP081979 23.4000 133.000 20 -1 24.1000 133.300 0 19 1004 23.4000 133.000 TC 20 23.4000 133.000 1 20 15 295
1979204N19143 1979 58 WP MM NOT_NAMED 1979-07-24 15:00:00 TS 23.8871 132.285 main 808 763 P_P______PP___ WP081979 23.6775 132.242 20 -1 24.4413 132.358 0 19 1003 23.6775 132.242 TC 20 23.7523 132.298 1 20 16 295
1979204N19143 1979 58 WP MM NOT_NAMED 1979-07-24 18:00:00 TS 24.2560 131.499 main 752 703 O_O______OP___ jtwc_wp WP081979 24.0000 131.500 20 -1 24.9000 131.400 0 19 1002 24.0000 131.500 TC 20 24.1238 131.597 1 20 16 302
1979204N19143 1979 58 WP MM NOT_NAMED 1979-07-24 21:00:00 TS 24.7172 130.832 main 703 648 P_P______PP___ WP081979 24.4694 130.842 20 -1 25.3965 130.746 0 19 1002 24.4694 130.842 TC 20 24.5335 130.897 1 20 15 310
1979204N19143 1979 58 WP MM NOT_NAMED 1979-07-25 00:00:00 TS 25.2500 130.200 main 638 592 O_O______OO___ jtwc_wp WP081979 25.0000 130.200 20 -1 26.0000 130.200 0 19 1002 25.0000 130.200 TC 20 25.0000 130.200 1 20 16 312
1979204N19143 1979 58 WP MM NOT_NAMED 1979-07-25 03:00:00 TS 25.7835 129.507 main 592 553 P_P______PP___ WP081979 25.4698 129.506 20 -1 26.7199 129.585 0 21 1002 25.4698 129.506 TC 20 25.4746 129.431 1 18 17 312
1979204N19143 1979 58 WP MM NOT_NAMED 1979-07-25 06:00:00 TS 26.3786 128.818 main 545 507 O_O______OP___ jtwc_wp WP081979 26.0000 128.800 20 -1 27.5000 129.000 1 23 1002 26.0000 128.800 TC 20 26.0145 128.673 1 17 18 315
1979204N19143 1979 58 WP MM NOT_NAMED 1979-07-25 09:00:00 TS 27.0369 128.127 main 511 455 P_P______PP___ WP081979 26.6255 128.026 17 -1 28.2497 128.477 1 23 1002 26.6255 128.026 TC 17 26.6468 127.978 1 16 18 322
1979204N19143 1979 58 WP MM NOT_NAMED 1979-07-25 12:00:00 TS 27.8000 127.550 main 455 402 O_O______OO___ jtwc_wp WP081979 27.4000 127.400 15 -1 29.0000 128.000 1 23 1002 27.4000 127.400 TC 15 27.4000 127.400 1 15 18 334
1979204N19143 1979 58 WP MM NOT_NAMED 1979-07-25 15:00:00 TS 28.6942 127.234 main 401 354 P_P______PP___ WP081979 28.3468 127.145 15 -1 29.7497 127.549 1 21 1003 28.3468 127.145 TC 15 28.3336 127.096 1 16 19 346
1979204N19143 1979 58 WP MM NOT_NAMED 1979-07-25 18:00:00 TS 29.6703 126.999 main 349 290 O_O______OP___ jtwc_wp WP081979 29.4000 127.000 15 -1 30.5000 127.100 0 19 1004 29.4000 127.000 TC 15 29.3811 126.897 1 17 20 346
1979204N19143 1979 58 WP MM NOT_NAMED 1979-07-25 21:00:00 TS 30.6699 126.685 main 279 178 P_P______PP___ WP081979 30.4645 126.724 17 -1 31.2873 126.615 0 19 1004 30.4645 126.724 TC 17 30.4633 126.676 1 18 21 342
1979204N19143 1979 58 WP MM NOT_NAMED 1979-07-26 00:00:00 TS 31.6538 126.238 main 167 105 O_O______OO___ jtwc_wp WP081979 31.5000 126.300 20 -1 32.0000 126.100 0 19 1004 31.5000 126.300 TC 20 31.5000 126.300 1 20 20 333
1979204N19143 1979 58 WP MM NOT_NAMED 1979-07-26 03:00:00 TS 32.4753 125.607 main 101 100 P_P______PP___ WP081979 32.4338 125.666 20 -1 32.5378 125.512 0 19 1004 32.4338 125.666 TC 20 32.4335 125.678 1 20 18 324
1979204N19143 1979 58 WP MM NOT_NAMED 1979-07-26 06:00:00 TS 33.1286 124.957 main 113 113 O_O______OO___ jtwc_wp WP081979 33.3000 124.900 20 -1 33.0000 125.000 0 19 1005 33.3000 124.900 TC 20 33.3000 124.900 1 20 13 324
1979204N19143 1979 58 WP MM NOT_NAMED 1979-07-26 09:00:00 TS 33.4996 124.704 main 140 140 __P___________ WP081979 -1 33.4996 124.704 0 19 1005 TC 1 10 336
1979204N19143 1979 58 WP MM NOT_NAMED 1979-07-26 12:00:00 TS 34.0000 124.500 main 175 174 __O___________ -1 34.0000 124.500 0 19 1006 11 338
1979204N19143 1979 58 WP MM NOT_NAMED 1979-07-26 15:00:00 TS 34.5001 124.213 main 192 190 __P___________ -1 34.5001 124.213 0 19 1007 11 338
1979204N19143 1979 58 WP MM NOT_NAMED 1979-07-26 18:00:00 TS 35.0000 124.000 main 200 199 __O___________ -1 35.0000 124.000 0 19 1008 10 348
1979204N19143 1979 58 WP MM NOT_NAMED 1979-07-26 21:00:00 TS 35.4999 123.962 main 204 167 __P___________ -1 35.4999 123.962 0 19 1008 10 1
1979204N19143 1979 58 WP MM NOT_NAMED 1979-07-27 00:00:00 TS 36.0000 124.000 main 167 140 __O___________ -1 36.0000 124.000 0 19 1008 10 2
1979204N19143 1979 58 WP MM NOT_NAMED 1979-07-27 03:00:00 TS 36.5000 124.013 main 140 125 __P___________ -1 36.5000 124.013 0 19 1008 10 359
1979204N19143 1979 58 WP MM NOT_NAMED 1979-07-27 06:00:00 TS 37.0000 124.000 main 125 __O___________ -1 37.0000 124.000 0 19 1008 10 357

デジタル台風データ・検索

IBTrACS Databaseについて

本データベースは、米国NOAAが公開する1842年以降の世界の熱帯低気圧のベストトラックデータアーカイブInternational Best Track Archive for Climate Stewardship (IBTrACS)を、ウェブで閲覧しやすい形式に変換したものです。

最終更新日:2021-10-21